createdAt,value
2023-01-12T00:01:28.081Z,8.37
2023-01-12T00:03:55.866Z,8.36
2023-01-12T00:06:24.225Z,8.35
2023-01-12T00:08:52.319Z,8.34
2023-01-12T00:11:20.299Z,8.34
2023-01-12T00:13:47.509Z,8.33
2023-01-12T00:16:35.606Z,8.33
2023-01-12T00:19:13.773Z,8.33
2023-01-12T00:21:56.352Z,8.32
2023-01-12T00:24:25.767Z,8.29
2023-01-12T00:26:53.690Z,8.30
2023-01-12T00:29:21.434Z,8.29
2023-01-12T00:31:48.202Z,8.28
2023-01-12T00:34:15.695Z,8.28
2023-01-12T00:36:42.732Z,8.28
2023-01-12T00:39:09.842Z,8.26
2023-01-12T00:41:56.176Z,8.25
2023-01-12T00:44:42.160Z,8.25
2023-01-12T00:47:10.098Z,8.28
2023-01-12T00:49:37.533Z,8.33
2023-01-12T00:52:06.454Z,8.37
2023-01-12T00:54:34.436Z,8.41
2023-01-12T00:57:02.598Z,8.47
2023-01-12T00:59:29.749Z,8.51
2023-01-12T01:01:57.641Z,8.55
2023-01-12T01:04:24.540Z,8.57
2023-01-12T01:06:51.360Z,8.60
2023-01-12T01:09:18.101Z,8.61
2023-01-12T01:11:44.721Z,8.61
2023-01-12T01:14:11.354Z,8.60
2023-01-12T01:16:37.972Z,8.59
2023-01-12T01:19:06.061Z,8.57
2023-01-12T01:21:33.844Z,8.55
2023-01-12T01:24:02.235Z,8.53
2023-01-12T01:26:30.952Z,8.51
2023-01-12T01:28:57.990Z,8.49
2023-01-12T01:31:26.536Z,8.47
2023-01-12T01:33:59.969Z,8.44
2023-01-12T01:36:26.600Z,8.41
2023-01-12T01:38:53.330Z,8.38
2023-01-12T01:41:22.308Z,8.36
2023-01-12T01:43:57.006Z,8.34
2023-01-12T01:46:48.187Z,8.32
2023-01-12T01:49:24.762Z,8.29
2023-01-12T01:51:55.914Z,8.27
2023-01-12T01:54:23.511Z,8.25
2023-01-12T01:56:56.075Z,8.23
2023-01-12T01:59:26.984Z,8.22
2023-01-12T02:01:55.103Z,8.20
2023-01-12T02:04:22.572Z,8.19
2023-01-12T02:06:49.940Z,8.18
2023-01-12T02:09:24.996Z,8.16
2023-01-12T02:12:11.439Z,8.13
2023-01-12T02:14:56.671Z,8.10
2023-01-12T02:17:48.483Z,8.07
2023-01-12T02:20:27.553Z,8.05
2023-01-12T02:23:31.492Z,8.04
2023-01-12T02:26:07.035Z,8.01
2023-01-12T02:28:49.605Z,7.98
2023-01-12T02:31:26.159Z,7.95
2023-01-12T02:34:11.434Z,7.93
2023-01-12T02:36:56.626Z,7.89
2023-01-12T02:39:41.629Z,7.86
2023-01-12T02:42:36.077Z,7.82
2023-01-12T02:45:23.974Z,7.77
2023-01-12T02:47:53.271Z,7.73
2023-01-12T02:50:29.623Z,7.68
2023-01-12T02:53:05.957Z,7.65
2023-01-12T02:55:34.783Z,7.62
2023-01-12T02:58:05.089Z,7.62
2023-01-12T03:00:32.928Z,7.63
2023-01-12T03:02:59.687Z,7.58
2023-01-12T03:05:26.963Z,7.50
2023-01-12T03:07:59.039Z,7.47
2023-01-12T03:10:43.892Z,7.45
2023-01-12T03:13:14.999Z,7.42
2023-01-12T03:15:46.655Z,7.40
2023-01-12T03:18:38.537Z,7.42
2023-01-12T03:21:10.272Z,7.43
2023-01-12T03:23:47.273Z,7.39
2023-01-12T03:26:17.859Z,7.30
2023-01-12T03:28:50.272Z,7.26
2023-01-12T03:31:17.037Z,7.24
2023-01-12T03:33:45.530Z,7.25
2023-01-12T03:36:24.384Z,7.26
2023-01-12T03:39:08.959Z,7.27
2023-01-12T03:41:42.983Z,7.28
2023-01-12T03:44:18.731Z,7.28
2023-01-12T03:46:55.308Z,7.29
2023-01-12T03:49:47.015Z,7.31
2023-01-12T03:52:15.434Z,7.32
2023-01-12T03:54:44.056Z,7.33
2023-01-12T03:57:12.929Z,7.34
2023-01-12T03:59:40.874Z,7.34
2023-01-12T04:02:07.627Z,7.33
2023-01-12T04:04:34.366Z,7.23
2023-01-12T04:07:01.926Z,7.09
2023-01-12T04:09:28.741Z,7.00
2023-01-12T04:12:10.721Z,6.90
2023-01-12T04:14:47.816Z,6.81
2023-01-12T04:17:15.079Z,6.78
2023-01-12T04:19:42.131Z,6.77
2023-01-12T04:22:32.898Z,6.75
2023-01-12T04:25:01.348Z,6.71
2023-01-12T04:27:28.688Z,6.68
2023-01-12T04:29:55.589Z,6.66
2023-01-12T04:32:22.418Z,6.64
2023-01-12T04:34:49.171Z,6.62
2023-01-12T04:37:16.125Z,6.60
2023-01-12T04:39:43.076Z,6.60
2023-01-12T04:42:29.723Z,6.61
2023-01-12T04:44:56.458Z,6.62
2023-01-12T04:47:24.098Z,6.53
2023-01-12T04:49:50.775Z,6.47
2023-01-12T04:52:17.473Z,6.47
2023-01-12T04:54:44.129Z,6.47
2023-01-12T04:57:10.875Z,6.49
2023-01-12T04:59:37.639Z,6.52
2023-01-12T05:02:04.429Z,6.55
2023-01-12T05:04:31.300Z,6.54
2023-01-12T05:06:57.977Z,6.55
2023-01-12T05:09:43.305Z,6.60
2023-01-12T05:12:10.151Z,6.65
2023-01-12T05:14:36.887Z,6.67
2023-01-12T05:17:03.836Z,6.63
2023-01-12T05:19:30.629Z,6.59
2023-01-12T05:21:57.341Z,6.58
2023-01-12T05:24:24.052Z,6.60
2023-01-12T05:26:50.732Z,6.61
2023-01-12T05:29:17.542Z,6.61
2023-01-12T05:31:44.391Z,6.61
2023-01-12T05:34:11.260Z,6.61
2023-01-12T05:36:38.003Z,6.61
2023-01-12T05:39:05.509Z,6.60
2023-01-12T05:41:32.204Z,6.57
2023-01-12T05:43:58.876Z,6.50
2023-01-12T05:46:28.736Z,6.41
2023-01-12T05:48:57.336Z,6.31
2023-01-12T05:51:26.456Z,6.27
2023-01-12T05:53:54.195Z,6.26
2023-01-12T05:56:25.981Z,6.25
2023-01-12T05:58:55.302Z,6.25
2023-01-12T06:01:22.924Z,6.26
2023-01-12T06:03:56.049Z,6.26
2023-01-12T06:06:26.041Z,6.26
2023-01-12T06:08:53.956Z,6.26
2023-01-12T06:11:40.702Z,6.32
2023-01-12T06:14:08.652Z,6.41
2023-01-12T06:16:38.681Z,6.49
2023-01-12T06:19:05.634Z,6.57
2023-01-12T06:21:33.436Z,6.62
2023-01-12T06:24:00.614Z,6.67
2023-01-12T06:26:27.405Z,6.71
2023-01-12T06:28:54.030Z,6.71
2023-01-12T06:31:20.625Z,6.69
2023-01-12T06:33:47.247Z,6.70
2023-01-12T06:36:13.874Z,6.72
2023-01-12T06:38:40.539Z,6.75
2023-01-12T06:41:33.296Z,6.77
2023-01-12T06:44:00.136Z,6.78
2023-01-12T06:46:28.000Z,6.80
2023-01-12T06:48:58.844Z,6.82
2023-01-12T06:51:26.168Z,6.85
2023-01-12T06:53:53.335Z,6.88
2023-01-12T06:56:20.052Z,6.88
2023-01-12T06:58:46.843Z,6.87
2023-01-12T07:01:17.094Z,6.89
2023-01-12T07:03:44.414Z,6.93
2023-01-12T07:06:11.109Z,6.98
2023-01-12T07:08:37.907Z,7.01
2023-01-12T07:11:08.161Z,6.98
2023-01-12T07:13:35.408Z,6.94
2023-01-12T07:16:02.179Z,6.92
2023-01-12T07:18:30.291Z,6.86
2023-01-12T07:20:57.300Z,6.79
2023-01-12T07:23:23.907Z,6.74
2023-01-12T07:25:50.617Z,6.71
2023-01-12T07:28:17.285Z,6.70
2023-01-12T07:30:43.939Z,6.70
2023-01-12T07:33:14.154Z,6.70
2023-01-12T07:35:42.594Z,6.71
2023-01-12T07:38:09.914Z,6.70
2023-01-12T07:40:36.964Z,6.70
2023-01-12T07:43:06.301Z,6.71
2023-01-12T07:45:33.689Z,6.74
2023-01-12T07:48:00.431Z,6.77
2023-01-12T07:50:28.894Z,6.81
2023-01-12T07:52:55.771Z,6.88
2023-01-12T07:55:22.423Z,6.94
2023-01-12T07:58:00.523Z,7.00
2023-01-12T08:00:27.820Z,7.05
2023-01-12T08:02:56.007Z,7.10
2023-01-12T08:05:23.056Z,7.14
2023-01-12T08:07:49.758Z,7.19
2023-01-12T08:10:16.794Z,7.24
2023-01-12T08:12:43.582Z,7.25
2023-01-12T08:15:11.567Z,7.18
2023-01-12T08:18:06.112Z,7.15
2023-01-12T08:20:36.097Z,7.11
2023-01-12T08:23:15.320Z,7.08
2023-01-12T08:25:45.524Z,7.09
2023-01-12T08:28:26.322Z,7.09
2023-01-12T08:30:53.109Z,7.11
2023-01-12T08:33:20.004Z,7.13
2023-01-12T08:35:48.188Z,7.14
2023-01-12T08:38:15.273Z,7.11
2023-01-12T08:41:00.465Z,7.09
2023-01-12T08:43:45.687Z,7.11
2023-01-12T08:46:12.504Z,7.15
2023-01-12T08:48:39.803Z,7.19
2023-01-12T08:51:08.204Z,7.23
2023-01-12T08:53:35.666Z,7.30
2023-01-12T08:56:02.744Z,7.39
2023-01-12T08:58:29.694Z,7.49
2023-01-12T09:00:56.529Z,7.59
2023-01-12T09:03:23.343Z,7.69
2023-01-12T09:05:49.981Z,7.80
2023-01-12T09:08:16.750Z,7.88
2023-01-12T09:10:43.495Z,7.95
2023-01-12T09:13:15.735Z,8.03
2023-01-12T09:15:48.280Z,8.09
2023-01-12T09:18:20.237Z,8.14
2023-01-12T09:20:46.938Z,8.17
2023-01-12T09:23:13.496Z,8.20
2023-01-12T09:25:40.347Z,8.20
2023-01-12T09:28:06.925Z,8.21
2023-01-12T09:30:33.636Z,8.25
2023-01-12T09:33:00.221Z,8.29
2023-01-12T09:35:26.875Z,8.34
2023-01-12T09:37:53.964Z,8.34
2023-01-12T09:40:20.849Z,8.35
2023-01-12T09:43:08.619Z,8.39
2023-01-12T09:45:53.901Z,8.43
2023-01-12T09:48:23.269Z,8.49
2023-01-12T09:51:10.834Z,8.55
2023-01-12T09:53:41.256Z,8.53
2023-01-12T09:56:21.559Z,8.47
2023-01-12T09:58:51.043Z,8.50
2023-01-12T10:01:28.656Z,8.53
2023-01-12T10:03:56.791Z,8.54
2023-01-12T10:06:23.410Z,8.58
2023-01-12T10:08:54.217Z,8.61
2023-01-12T10:11:46.346Z,8.65
2023-01-12T10:14:34.583Z,8.70
2023-01-12T10:17:13.511Z,8.74
2023-01-12T10:19:53.163Z,8.80
2023-01-12T10:22:41.508Z,8.87
2023-01-12T10:25:17.648Z,8.92
2023-01-12T10:27:47.589Z,8.94
2023-01-12T10:30:24.823Z,8.97
2023-01-12T10:32:51.650Z,9.05
2023-01-12T10:35:21.763Z,9.11
2023-01-12T10:37:54.270Z,9.20
2023-01-12T10:40:30.278Z,9.29
2023-01-12T10:43:20.097Z,9.35
2023-01-12T10:46:11.800Z,9.42
2023-01-12T10:48:42.734Z,9.46
2023-01-12T10:51:27.015Z,9.49
2023-01-12T10:54:10.679Z,9.53
2023-01-12T10:56:41.594Z,9.56
2023-01-12T10:59:14.310Z,9.58
2023-01-12T11:02:03.731Z,9.55
2023-01-12T11:04:35.954Z,9.56
2023-01-12T11:07:10.819Z,9.61
2023-01-12T11:09:38.201Z,9.65
2023-01-12T11:12:34.975Z,9.67
2023-01-12T11:15:10.818Z,9.68
2023-01-12T11:18:15.246Z,9.70
2023-01-12T11:20:53.094Z,9.72
2023-01-12T11:23:42.934Z,9.77
2023-01-12T11:26:51.077Z,9.83
2023-01-12T11:29:31.835Z,9.89
2023-01-12T11:32:06.428Z,9.94
2023-01-12T11:34:39.402Z,9.96
2023-01-12T11:37:12.661Z,9.93
2023-01-12T11:39:41.508Z,9.90
2023-01-12T11:42:38.331Z,9.91
2023-01-12T11:45:10.839Z,9.94
2023-01-12T11:47:42.493Z,9.93
2023-01-12T11:50:29.795Z,9.92
2023-01-12T11:52:58.085Z,9.92
2023-01-12T11:55:47.943Z,9.93
2023-01-12T11:58:27.588Z,9.90
2023-01-12T12:00:59.857Z,9.84
2023-01-12T12:03:36.412Z,9.81
2023-01-12T12:06:22.701Z,9.77
2023-01-12T12:09:40.675Z,9.75
2023-01-12T12:12:31.669Z,9.72
2023-01-12T12:15:13.542Z,9.72
2023-01-12T12:18:00.655Z,9.73
2023-01-12T12:20:39.252Z,9.73
2023-01-12T12:23:25.364Z,9.78
2023-01-12T12:26:24.298Z,9.84
2023-01-12T12:29:15.271Z,9.90
2023-01-12T12:32:30.343Z,9.96
2023-01-12T12:35:15.308Z,10.05
2023-01-12T12:37:53.560Z,10.13
2023-01-12T12:41:10.459Z,10.19
2023-01-12T12:43:56.747Z,10.24
2023-01-12T12:46:51.114Z,10.27
2023-01-12T12:49:22.658Z,10.31
2023-01-12T12:51:50.131Z,10.31
2023-01-12T12:54:19.202Z,10.30
2023-01-12T12:56:47.336Z,10.31
2023-01-12T12:59:38.582Z,10.33
2023-01-12T13:02:05.273Z,10.36
2023-01-12T13:04:43.995Z,10.39
2023-01-12T13:07:18.500Z,10.43
2023-01-12T13:09:46.730Z,10.46
2023-01-12T13:12:34.029Z,10.51
2023-01-12T13:15:26.891Z,10.57
2023-01-12T13:17:54.706Z,10.60
2023-01-12T13:20:49.960Z,10.61
2023-01-12T13:23:46.377Z,10.62
2023-01-12T13:26:31.264Z,10.61
2023-01-12T13:29:27.166Z,10.60
2023-01-12T13:32:37.020Z,10.58
2023-01-12T13:35:23.280Z,10.57
2023-01-12T13:38:02.394Z,10.57
2023-01-12T13:40:32.688Z,10.61
2023-01-12T13:43:15.043Z,10.63
2023-01-12T13:45:51.052Z,10.65
2023-01-12T13:48:19.278Z,10.67
2023-01-12T13:50:48.752Z,10.70
2023-01-12T13:53:28.722Z,10.72
2023-01-12T13:56:07.710Z,10.74
2023-01-12T13:58:43.714Z,10.74
2023-01-12T14:01:28.559Z,10.75
2023-01-12T14:04:14.245Z,10.75
2023-01-12T14:06:59.219Z,10.76
2023-01-12T14:09:52.266Z,10.74
2023-01-12T14:12:22.051Z,10.73
2023-01-12T14:15:35.873Z,10.74
2023-01-12T14:18:05.765Z,10.79
2023-01-12T14:20:41.958Z,10.83
2023-01-12T14:23:21.307Z,10.88
2023-01-12T14:26:03.411Z,10.90
2023-01-12T14:28:30.934Z,10.93
2023-01-12T14:30:58.440Z,10.96
2023-01-12T14:33:31.960Z,10.98
2023-01-12T14:36:04.529Z,11.00
2023-01-12T14:38:34.292Z,11.02
2023-01-12T14:41:05.589Z,11.02
2023-01-12T14:43:53.880Z,11.01
2023-01-12T14:46:33.595Z,11.00
2023-01-12T14:49:05.131Z,10.99
2023-01-12T14:51:35.795Z,10.97
2023-01-12T14:54:05.483Z,10.95
2023-01-12T14:56:41.239Z,10.92
2023-01-12T14:59:22.848Z,10.88
2023-01-12T15:01:50.869Z,10.85
2023-01-12T15:04:25.087Z,10.83
2023-01-12T15:07:06.412Z,10.80
2023-01-12T15:09:36.997Z,10.79
2023-01-12T15:12:39.223Z,10.78
2023-01-12T15:15:22.837Z,10.79
2023-01-12T15:18:10.041Z,10.80
2023-01-12T15:20:58.902Z,10.81
2023-01-12T15:23:51.086Z,10.82
2023-01-12T15:26:18.513Z,10.80
2023-01-12T15:28:46.316Z,10.77
2023-01-12T15:31:19.225Z,10.73
2023-01-12T15:33:46.225Z,10.69
2023-01-12T15:36:14.127Z,10.64
2023-01-12T15:38:40.730Z,10.57
2023-01-12T15:41:08.364Z,10.51
2023-01-12T15:43:34.915Z,10.44
2023-01-12T15:46:01.625Z,10.37
2023-01-12T15:48:28.226Z,10.31
2023-01-12T15:50:54.920Z,10.24
2023-01-12T15:53:24.869Z,10.16
2023-01-12T15:55:51.525Z,10.08
2023-01-12T15:58:19.686Z,9.99
2023-01-12T16:00:46.998Z,9.92
2023-01-12T16:03:38.179Z,9.85
2023-01-12T16:06:01.203Z,9.77
2023-01-12T16:08:27.844Z,9.70
2023-01-12T16:11:09.756Z,9.63
2023-01-12T16:13:36.404Z,9.56
2023-01-12T16:16:03.600Z,9.51
2023-01-12T16:18:30.808Z,9.48
2023-01-12T16:21:01.546Z,9.44
2023-01-12T16:23:28.567Z,9.39
2023-01-12T16:26:00.285Z,9.35
2023-01-12T16:28:28.536Z,9.30
2023-01-12T16:30:56.812Z,9.26
2023-01-12T16:33:23.483Z,9.21
2023-01-12T16:35:51.061Z,9.15
2023-01-12T16:38:18.459Z,9.08
2023-01-12T16:40:45.215Z,9.02
2023-01-12T16:43:12.109Z,8.94
2023-01-12T16:45:42.719Z,8.86
2023-01-12T16:48:09.366Z,8.80
2023-01-12T16:50:42.409Z,8.73
2023-01-12T16:53:11.181Z,8.67
2023-01-12T16:55:38.843Z,8.60
2023-01-12T16:58:06.571Z,8.55
2023-01-12T17:00:35.628Z,8.50
2023-01-12T17:03:03.139Z,8.47
2023-01-12T17:05:30.283Z,8.44
2023-01-12T17:07:57.072Z,8.41
2023-01-12T17:10:23.970Z,8.39
2023-01-12T17:12:57.917Z,8.37
2023-01-12T17:15:28.593Z,8.35
2023-01-12T17:17:55.933Z,8.34
2023-01-12T17:20:22.876Z,8.32
2023-01-12T17:22:50.135Z,8.30
2023-01-12T17:25:16.886Z,8.28
2023-01-12T17:27:43.780Z,8.25
2023-01-12T17:30:11.621Z,8.20
2023-01-12T17:32:39.439Z,8.15
2023-01-12T17:35:09.338Z,8.11
2023-01-12T17:37:36.763Z,8.07
2023-01-12T17:40:04.307Z,8.03
2023-01-12T17:42:49.937Z,8.00
2023-01-12T17:45:16.715Z,7.96
2023-01-12T17:47:43.596Z,7.92
2023-01-12T17:50:11.131Z,7.89
2023-01-12T17:52:37.815Z,7.87
2023-01-12T17:55:04.990Z,7.86
2023-01-12T17:57:31.654Z,7.88
2023-01-12T17:59:58.405Z,7.88
2023-01-12T18:02:25.285Z,7.89
2023-01-12T18:04:52.027Z,7.90
2023-01-12T18:07:18.769Z,7.90
2023-01-12T18:09:45.386Z,7.88
2023-01-12T18:12:12.499Z,7.87
2023-01-12T18:14:39.338Z,7.86
2023-01-12T18:17:06.037Z,7.83
2023-01-12T18:19:33.441Z,7.80
2023-01-12T18:22:05.986Z,7.78
2023-01-12T18:24:34.273Z,7.76
2023-01-12T18:27:01.696Z,7.74
2023-01-12T18:29:29.086Z,7.72
2023-01-12T18:31:55.843Z,7.70
2023-01-12T18:34:22.560Z,7.67
2023-01-12T18:36:49.277Z,7.69
2023-01-12T18:39:18.463Z,7.70
2023-01-12T18:42:04.214Z,7.72
2023-01-12T18:44:33.771Z,7.74
2023-01-12T18:47:20.472Z,7.76
2023-01-12T18:49:50.348Z,7.78
2023-01-12T18:52:36.998Z,7.81
2023-01-12T18:55:05.613Z,7.84
2023-01-12T18:57:33.158Z,7.84
2023-01-12T19:00:28.143Z,7.83
2023-01-12T19:02:54.859Z,7.81
2023-01-12T19:05:35.329Z,7.78
2023-01-12T19:08:24.545Z,7.70
2023-01-12T19:10:51.372Z,7.61
2023-01-12T19:13:36.537Z,7.58
2023-01-12T19:16:22.129Z,7.55
2023-01-12T19:18:48.788Z,7.51
2023-01-12T19:21:34.056Z,7.47
2023-01-12T19:24:19.065Z,7.42
2023-01-12T19:27:04.597Z,7.39
2023-01-12T19:29:31.176Z,7.37
2023-01-12T19:31:57.799Z,7.37
2023-01-12T19:34:24.929Z,7.37
2023-01-12T19:36:51.652Z,7.38
2023-01-12T19:39:27.021Z,7.38
2023-01-12T19:42:12.573Z,7.38
2023-01-12T19:44:39.298Z,7.38
2023-01-12T19:47:05.947Z,7.38
2023-01-12T19:49:32.692Z,7.37
2023-01-12T19:51:59.368Z,7.36
2023-01-12T19:54:27.122Z,7.35
2023-01-12T19:56:53.757Z,7.35
2023-01-12T19:59:20.367Z,7.35
2023-01-12T20:01:47.130Z,7.34
2023-01-12T20:04:13.796Z,7.35
2023-01-12T20:06:40.382Z,7.35
2023-01-12T20:09:07.195Z,7.37
2023-01-12T20:11:33.855Z,7.42
2023-01-12T20:14:00.506Z,7.47
2023-01-12T20:16:27.641Z,7.52
2023-01-12T20:18:57.813Z,7.58
2023-01-12T20:21:24.433Z,7.62
2023-01-12T20:23:51.096Z,7.68
2023-01-12T20:26:17.771Z,7.73
2023-01-12T20:28:44.418Z,7.76
2023-01-12T20:31:15.861Z,7.80
2023-01-12T20:33:42.642Z,7.82
2023-01-12T20:36:11.507Z,7.84
2023-01-12T20:38:38.816Z,7.86
2023-01-12T20:41:06.157Z,7.88
2023-01-12T20:43:33.905Z,7.85
2023-01-12T20:46:01.851Z,7.76
2023-01-12T20:48:28.891Z,7.64
2023-01-12T20:50:55.630Z,7.51
2023-01-12T20:53:25.000Z,7.39
2023-01-12T20:55:51.902Z,7.30
2023-01-12T20:58:19.175Z,7.23
2023-01-12T21:00:46.121Z,7.19
2023-01-12T21:03:12.847Z,7.18
2023-01-12T21:05:44.754Z,7.14
2023-01-12T21:08:12.692Z,7.11
2023-01-12T21:10:42.652Z,7.11
2023-01-12T21:13:09.404Z,7.14
2023-01-12T21:15:37.663Z,7.16
2023-01-12T21:18:05.635Z,7.18
2023-01-12T21:20:33.505Z,7.19
2023-01-12T21:23:00.768Z,7.20
2023-01-12T21:25:28.955Z,7.21
2023-01-12T21:27:55.732Z,7.21
2023-01-12T21:30:22.543Z,7.20
2023-01-12T21:32:50.433Z,7.19
2023-01-12T21:35:17.939Z,7.21
2023-01-12T21:37:44.578Z,7.21
2023-01-12T21:40:11.773Z,7.22
2023-01-12T21:42:57.008Z,7.23
2023-01-12T21:45:25.360Z,7.25
2023-01-12T21:47:52.005Z,7.28
2023-01-12T21:50:18.571Z,7.29
2023-01-12T21:52:45.155Z,7.29
2023-01-12T21:55:13.512Z,7.30
2023-01-12T21:57:41.848Z,7.30
2023-01-12T22:00:10.316Z,7.30
2023-01-12T22:02:40.218Z,7.29
2023-01-12T22:05:07.246Z,7.29
2023-01-12T22:07:33.916Z,7.29
2023-01-12T22:10:19.117Z,7.30
2023-01-12T22:12:54.496Z,7.29
2023-01-12T22:15:22.326Z,7.29
2023-01-12T22:17:51.445Z,7.29
2023-01-12T22:20:18.441Z,7.16
2023-01-12T22:22:45.505Z,7.11
2023-01-12T22:25:14.753Z,7.12
2023-01-12T22:27:41.761Z,7.13
2023-01-12T22:30:16.943Z,7.18
2023-01-12T22:32:44.353Z,7.20
2023-01-12T22:35:12.163Z,7.24
2023-01-12T22:37:40.297Z,7.26
2023-01-12T22:40:09.179Z,7.27
2023-01-12T22:42:54.797Z,7.28
2023-01-12T22:45:21.510Z,7.28
2023-01-12T22:47:52.580Z,7.29
2023-01-12T22:50:19.882Z,7.29
2023-01-12T22:52:54.677Z,7.28
2023-01-12T22:55:23.434Z,7.29
2023-01-12T22:57:50.368Z,7.30
2023-01-12T23:00:18.937Z,7.31
2023-01-12T23:03:01.885Z,7.32
2023-01-12T23:05:56.433Z,7.32
2023-01-12T23:08:24.081Z,7.32
2023-01-12T23:10:51.862Z,7.31
2023-01-12T23:13:21.397Z,7.31
2023-01-12T23:15:54.114Z,7.32
2023-01-12T23:18:22.867Z,7.32
2023-01-12T23:20:49.949Z,7.31
2023-01-12T23:23:20.319Z,7.30
2023-01-12T23:25:47.357Z,7.28
2023-01-12T23:28:14.892Z,7.24
2023-01-12T23:30:42.246Z,7.22
2023-01-12T23:33:09.700Z,7.19
2023-01-12T23:35:39.518Z,7.20
2023-01-12T23:38:07.449Z,7.21
2023-01-12T23:40:34.917Z,7.24
2023-01-12T23:43:01.674Z,7.25
2023-01-12T23:45:28.907Z,7.29
2023-01-12T23:47:55.547Z,7.33
2023-01-12T23:50:22.205Z,7.36
2023-01-12T23:52:52.778Z,7.33
2023-01-12T23:55:19.454Z,7.30
2023-01-12T23:57:47.533Z,7.28
